createdAt,value
2023-05-05T00:00:53.412Z,24.15
2023-05-05T00:03:20.861Z,24.14
2023-05-05T00:05:49.981Z,24.13
2023-05-05T00:08:17.409Z,24.12
2023-05-05T00:10:45.371Z,24.07
2023-05-05T00:13:12.891Z,24.04
2023-05-05T00:15:41.542Z,24.05
2023-05-05T00:18:08.781Z,24.04
2023-05-05T00:20:36.189Z,24.03
2023-05-05T00:23:04.997Z,24.05
2023-05-05T00:25:32.215Z,24.07
2023-05-05T00:27:59.294Z,24.10
2023-05-05T00:30:27.174Z,24.09
2023-05-05T00:32:54.994Z,24.11
2023-05-05T00:35:22.178Z,24.12
2023-05-05T00:37:49.331Z,24.12
2023-05-05T00:40:17.784Z,24.13
2023-05-05T00:42:46.414Z,24.09
2023-05-05T00:45:15.317Z,24.08
2023-05-05T00:47:46.286Z,24.08
2023-05-05T00:50:21.906Z,24.09
2023-05-05T00:52:50.791Z,24.04
2023-05-05T00:55:19.875Z,24.10
2023-05-05T00:57:48.150Z,24.04
2023-05-05T01:00:15.593Z,23.98
2023-05-05T01:02:42.732Z,23.99
2023-05-05T01:05:10.432Z,23.99
2023-05-05T01:07:47.613Z,24.01
2023-05-05T01:10:22.697Z,24.00
2023-05-05T01:12:58.124Z,24.07
2023-05-05T01:15:33.137Z,24.07
2023-05-05T01:18:09.513Z,24.13
2023-05-05T01:20:44.789Z,24.10
2023-05-05T01:23:22.702Z,24.09
2023-05-05T01:26:08.453Z,24.12
2023-05-05T01:28:56.321Z,24.12
2023-05-05T01:31:41.656Z,24.06
2023-05-05T01:34:13.396Z,24.07
2023-05-05T01:36:44.005Z,24.07
2023-05-05T01:39:15.864Z,24.06
2023-05-05T01:41:46.991Z,24.04
2023-05-05T01:44:16.105Z,23.99
2023-05-05T01:46:44.508Z,23.98
2023-05-05T01:49:13.343Z,24.00
2023-05-05T01:51:42.220Z,23.95
2023-05-05T01:54:10.321Z,24.01
2023-05-05T01:56:40.123Z,23.97
2023-05-05T01:59:08.675Z,24.01
2023-05-05T02:01:38.546Z,24.08
2023-05-05T02:04:08.676Z,24.10
2023-05-05T02:06:37.511Z,24.04
2023-05-05T02:09:05.368Z,24.07
2023-05-05T02:11:32.986Z,24.08
2023-05-05T02:14:01.968Z,24.09
2023-05-05T02:16:29.521Z,24.06
2023-05-05T02:19:01.692Z,24.05
2023-05-05T02:21:30.303Z,24.06
2023-05-05T02:23:58.317Z,24.07
2023-05-05T02:26:25.895Z,24.05
2023-05-05T02:29:02.357Z,24.07
2023-05-05T02:31:33.137Z,24.01
2023-05-05T02:34:03.416Z,23.95
2023-05-05T02:36:37.025Z,23.93
2023-05-05T02:39:12.615Z,23.94
2023-05-05T02:41:41.323Z,23.94
2023-05-05T02:44:12.174Z,23.93
2023-05-05T02:46:39.681Z,24.01
2023-05-05T02:49:06.919Z,24.02
2023-05-05T02:51:35.322Z,24.02
2023-05-05T02:54:02.754Z,24.02
2023-05-05T02:56:39.269Z,24.06
2023-05-05T02:59:16.380Z,24.05
2023-05-05T03:01:53.987Z,24.01
2023-05-05T03:04:25.693Z,24.02
2023-05-05T03:06:57.959Z,24.03
2023-05-05T03:09:30.117Z,24.01
2023-05-05T03:12:00.906Z,23.94
2023-05-05T03:14:34.725Z,24.05
2023-05-05T03:17:03.177Z,23.98
2023-05-05T03:19:32.126Z,23.92
2023-05-05T03:22:02.779Z,23.90
2023-05-05T03:24:29.887Z,23.88
2023-05-05T03:26:56.981Z,23.88
2023-05-05T03:29:24.135Z,23.90
2023-05-05T03:31:51.386Z,23.93
2023-05-05T03:34:18.484Z,23.98
2023-05-05T03:36:45.616Z,24.03
2023-05-05T03:39:14.016Z,24.03
2023-05-05T03:41:41.080Z,24.05
2023-05-05T03:44:08.185Z,24.06
2023-05-05T03:46:35.250Z,24.02
2023-05-05T03:49:02.380Z,24.00
2023-05-05T03:51:29.481Z,24.03
2023-05-05T03:53:56.547Z,24.05
2023-05-05T03:56:24.964Z,23.98
2023-05-05T03:58:52.085Z,24.00
2023-05-05T04:01:19.187Z,24.17
2023-05-05T04:03:46.445Z,24.14
2023-05-05T04:06:13.726Z,24.14
2023-05-05T04:08:40.832Z,24.09
2023-05-05T04:11:07.955Z,23.97
2023-05-05T04:13:37.724Z,23.95
2023-05-05T04:16:05.181Z,23.97
2023-05-05T04:18:32.265Z,23.96
2023-05-05T04:20:59.371Z,24.01
2023-05-05T04:23:26.578Z,24.05
2023-05-05T04:25:53.689Z,24.07
2023-05-05T04:28:21.851Z,23.91
2023-05-05T04:30:50.602Z,24.09
2023-05-05T04:33:17.687Z,24.09
2023-05-05T04:35:44.795Z,24.06
2023-05-05T04:38:11.885Z,24.07
2023-05-05T04:40:39.333Z,24.07
2023-05-05T04:43:06.459Z,24.07
2023-05-05T04:45:33.605Z,24.06
2023-05-05T04:48:02.114Z,24.05
2023-05-05T04:50:29.237Z,24.03
2023-05-05T04:52:56.353Z,24.01
2023-05-05T04:55:23.486Z,23.93
2023-05-05T04:57:50.571Z,23.92
2023-05-05T05:00:17.864Z,23.92
2023-05-05T05:02:44.989Z,23.93
2023-05-05T05:05:13.507Z,23.95
2023-05-05T05:07:40.620Z,23.97
2023-05-05T05:10:08.780Z,24.02
2023-05-05T05:12:36.041Z,24.04
2023-05-05T05:15:03.490Z,24.04
2023-05-05T05:17:30.635Z,24.05
2023-05-05T05:19:57.902Z,24.05
2023-05-05T05:22:26.408Z,24.05
2023-05-05T05:24:53.484Z,24.04
2023-05-05T05:27:20.610Z,24.03
2023-05-05T05:29:47.687Z,24.06
2023-05-05T05:32:14.826Z,24.06
2023-05-05T05:34:41.941Z,24.04
2023-05-05T05:37:09.012Z,24.00
2023-05-05T05:39:37.426Z,23.99
2023-05-05T05:42:04.679Z,23.95
2023-05-05T05:44:31.816Z,23.91
2023-05-05T05:46:58.893Z,23.94
2023-05-05T05:49:26.135Z,23.95
2023-05-05T05:51:53.193Z,23.96
2023-05-05T05:54:20.270Z,23.94
2023-05-05T05:56:48.861Z,24.03
2023-05-05T05:59:15.991Z,24.05
2023-05-05T06:01:43.068Z,24.07
2023-05-05T06:04:10.247Z,24.06
2023-05-05T06:06:37.347Z,24.05
2023-05-05T06:09:04.481Z,24.04
2023-05-05T06:11:31.577Z,24.04
2023-05-05T06:14:00.011Z,24.04
2023-05-05T06:16:27.187Z,24.03
2023-05-05T06:18:54.473Z,24.01
2023-05-05T06:21:21.638Z,24.04
2023-05-05T06:23:48.711Z,24.02
2023-05-05T06:26:15.969Z,23.95
2023-05-05T06:28:43.021Z,23.90
2023-05-05T06:31:11.429Z,23.92
2023-05-05T06:33:38.574Z,23.95
2023-05-05T06:36:06.042Z,23.91
2023-05-05T06:38:33.159Z,23.96
2023-05-05T06:41:00.246Z,23.97
2023-05-05T06:43:28.799Z,24.01
2023-05-05T06:45:56.035Z,24.09
2023-05-05T06:48:24.466Z,24.06
2023-05-05T06:50:51.605Z,24.06
2023-05-05T06:53:18.690Z,24.10
2023-05-05T06:55:47.304Z,24.02
2023-05-05T06:58:14.383Z,24.06
2023-05-05T07:00:41.668Z,24.07
2023-05-05T07:03:09.097Z,24.08
2023-05-05T07:05:37.571Z,24.07
2023-05-05T07:08:05.053Z,24.09
2023-05-05T07:10:32.905Z,24.09
2023-05-05T07:13:00.131Z,24.07
2023-05-05T07:15:29.335Z,24.02
2023-05-05T07:17:57.081Z,23.97
2023-05-05T07:20:24.671Z,23.97
2023-05-05T07:22:53.158Z,23.99
2023-05-05T07:25:20.786Z,24.00
2023-05-05T07:27:47.939Z,24.04
2023-05-05T07:30:18.438Z,24.07
2023-05-05T07:32:46.727Z,24.12
2023-05-05T07:35:13.983Z,24.11
2023-05-05T07:37:41.083Z,24.11
2023-05-05T07:40:10.605Z,24.11
2023-05-05T07:42:38.009Z,24.06
2023-05-05T07:45:06.497Z,24.11
2023-05-05T07:47:33.690Z,24.12
2023-05-05T07:50:01.380Z,24.10
2023-05-05T07:52:44.213Z,24.11
2023-05-05T07:55:13.337Z,24.12
2023-05-05T07:57:40.450Z,24.10
2023-05-05T08:00:08.706Z,24.09
2023-05-05T08:02:36.024Z,24.04
2023-05-05T08:05:03.352Z,24.01
2023-05-05T08:07:30.567Z,24.03
2023-05-05T08:09:57.696Z,24.07
2023-05-05T08:12:26.684Z,24.06
2023-05-05T08:14:53.769Z,24.06
2023-05-05T08:17:20.948Z,24.13
2023-05-05T08:19:51.798Z,24.14
2023-05-05T08:22:18.907Z,24.09
2023-05-05T08:24:46.010Z,24.18
2023-05-05T08:27:13.157Z,24.17
2023-05-05T08:29:41.580Z,24.17
2023-05-05T08:32:08.699Z,24.12
2023-05-05T08:34:35.765Z,24.12
2023-05-05T08:37:02.846Z,24.14
2023-05-05T08:39:30.055Z,24.14
2023-05-05T08:41:57.658Z,24.07
2023-05-05T08:44:24.859Z,24.12
2023-05-05T08:46:54.114Z,24.12
2023-05-05T08:49:22.492Z,24.06
2023-05-05T08:51:52.044Z,24.06
2023-05-05T08:54:20.418Z,24.06
2023-05-05T08:56:49.931Z,24.08
2023-05-05T08:59:18.753Z,24.09
2023-05-05T09:01:46.900Z,24.08
2023-05-05T09:04:16.106Z,24.12
2023-05-05T09:06:43.264Z,24.17
2023-05-05T09:09:10.456Z,24.20
2023-05-05T09:11:39.068Z,24.19
2023-05-05T09:14:06.185Z,24.20
2023-05-05T09:16:33.351Z,24.20
2023-05-05T09:19:03.737Z,24.20
2023-05-05T09:21:32.196Z,24.14
2023-05-05T09:24:09.151Z,24.13
2023-05-05T09:26:38.548Z,24.13
2023-05-05T09:29:06.044Z,24.03
2023-05-05T09:31:34.748Z,24.11
2023-05-05T09:34:13.033Z,24.17
2023-05-05T09:36:46.519Z,24.08
2023-05-05T09:39:14.053Z,24.09
2023-05-05T09:41:42.375Z,24.12
2023-05-05T09:44:10.545Z,24.13
2023-05-05T09:46:37.679Z,24.14
2023-05-05T09:49:12.403Z,24.16
2023-05-05T09:51:39.581Z,24.23
2023-05-05T09:54:08.139Z,24.27
2023-05-05T09:56:39.458Z,24.30
2023-05-05T09:59:10.231Z,24.22
2023-05-05T10:01:38.123Z,24.27
2023-05-05T10:04:05.468Z,24.23
2023-05-05T10:06:44.211Z,24.32
2023-05-05T10:09:12.961Z,24.30
2023-05-05T10:11:41.739Z,24.35
2023-05-05T10:14:12.834Z,24.36
2023-05-05T10:16:45.924Z,24.40
2023-05-05T10:19:15.333Z,24.35
2023-05-05T10:21:47.080Z,24.27
2023-05-05T10:24:24.135Z,24.22
2023-05-05T10:26:53.058Z,24.26
2023-05-05T10:29:31.820Z,24.31
2023-05-05T10:32:18.849Z,24.31
2023-05-05T10:34:53.146Z,24.31
2023-05-05T10:37:21.320Z,24.34
2023-05-05T10:39:51.519Z,24.43
2023-05-05T10:42:19.454Z,24.53
2023-05-05T10:44:46.628Z,24.57
2023-05-05T10:47:14.264Z,24.61
2023-05-05T10:49:47.633Z,24.60
2023-05-05T10:52:23.404Z,24.61
2023-05-05T10:55:01.361Z,24.75
2023-05-05T10:57:29.373Z,24.68
2023-05-05T10:59:56.435Z,24.70
2023-05-05T11:02:25.454Z,24.72
2023-05-05T11:05:10.594Z,24.74
2023-05-05T11:07:37.919Z,24.65
2023-05-05T11:10:08.502Z,24.63
2023-05-05T11:13:13.364Z,24.75
2023-05-05T11:15:40.689Z,24.83
2023-05-05T11:18:08.371Z,24.77
2023-05-05T11:21:12.061Z,24.66
2023-05-05T11:23:39.171Z,24.63
2023-05-05T11:26:07.750Z,24.66
2023-05-05T11:28:34.945Z,24.66
2023-05-05T11:31:17.021Z,24.64
2023-05-05T11:33:44.322Z,24.74
2023-05-05T11:36:13.010Z,24.80
2023-05-05T11:39:18.360Z,24.82
2023-05-05T11:42:02.290Z,24.82
2023-05-05T11:44:31.849Z,24.87
2023-05-05T11:47:25.957Z,24.86
2023-05-05T11:49:53.230Z,24.85
2023-05-05T11:52:20.312Z,24.93
2023-05-05T11:54:47.912Z,24.89
2023-05-05T11:57:17.841Z,24.77
2023-05-05T11:59:54.837Z,24.71
2023-05-05T12:02:23.233Z,24.72
2023-05-05T12:04:51.466Z,24.78
2023-05-05T12:07:20.273Z,24.71
2023-05-05T12:09:48.605Z,24.80
2023-05-05T12:12:17.629Z,24.88
2023-05-05T12:14:46.042Z,24.98
2023-05-05T12:17:13.399Z,25.05
2023-05-05T12:19:47.721Z,25.12
2023-05-05T12:22:22.178Z,25.13
2023-05-05T12:24:54.940Z,25.18
2023-05-05T12:27:24.455Z,25.15
2023-05-05T12:29:52.300Z,25.21
2023-05-05T12:32:21.466Z,25.30
2023-05-05T12:34:49.844Z,25.18
2023-05-05T12:37:17.577Z,25.15
2023-05-05T12:39:44.974Z,25.28
2023-05-05T12:42:12.216Z,25.24
2023-05-05T12:44:40.787Z,25.20
2023-05-05T12:47:08.346Z,25.24
2023-05-05T12:49:45.744Z,25.29
2023-05-05T12:52:12.892Z,25.34
2023-05-05T12:54:55.076Z,25.39
2023-05-05T12:57:22.663Z,25.40
2023-05-05T12:59:51.613Z,25.46
2023-05-05T13:02:19.474Z,25.41
2023-05-05T13:04:51.324Z,25.46
2023-05-05T13:07:19.546Z,25.51
2023-05-05T13:09:47.894Z,25.62
2023-05-05T13:12:17.034Z,25.64
2023-05-05T13:14:44.288Z,25.66
2023-05-05T13:17:13.263Z,25.71
2023-05-05T13:19:40.771Z,25.70
2023-05-05T13:22:08.918Z,25.67
2023-05-05T13:24:47.161Z,25.70
2023-05-05T13:27:18.534Z,25.65
2023-05-05T13:29:45.697Z,25.58
2023-05-05T13:32:14.124Z,25.58
2023-05-05T13:34:41.317Z,25.56
2023-05-05T13:37:08.414Z,25.64
2023-05-05T13:39:35.554Z,25.59
2023-05-05T13:42:02.804Z,25.62
2023-05-05T13:44:29.956Z,25.68
2023-05-05T13:46:57.200Z,25.72
2023-05-05T13:49:25.716Z,25.70
2023-05-05T13:51:52.827Z,25.74
2023-05-05T13:54:19.917Z,25.74
2023-05-05T13:56:47.285Z,25.82
2023-05-05T13:59:14.371Z,25.84
2023-05-05T14:01:41.644Z,25.83
2023-05-05T14:04:08.780Z,25.85
2023-05-05T14:06:37.272Z,25.80
2023-05-05T14:09:04.351Z,25.93
2023-05-05T14:11:32.144Z,25.94
2023-05-05T14:13:59.228Z,25.92
2023-05-05T14:16:26.370Z,25.86
2023-05-05T14:18:53.521Z,25.85
2023-05-05T14:21:20.590Z,25.91
2023-05-05T14:23:49.008Z,25.94
2023-05-05T14:26:16.143Z,26.03
2023-05-05T14:28:43.338Z,25.98
2023-05-05T14:31:10.405Z,26.04
2023-05-05T14:33:37.537Z,26.17
2023-05-05T14:36:05.253Z,26.15
2023-05-05T14:38:32.388Z,26.09
2023-05-05T14:41:01.026Z,25.97
2023-05-05T14:43:28.111Z,25.99
2023-05-05T14:45:55.273Z,25.93
2023-05-05T14:48:22.685Z,25.92
2023-05-05T14:50:49.972Z,25.87
2023-05-05T14:53:17.197Z,25.83
2023-05-05T14:55:44.349Z,25.73
2023-05-05T14:58:12.761Z,25.71
2023-05-05T15:00:39.869Z,25.74
2023-05-05T15:03:07.155Z,25.71
2023-05-05T15:05:34.306Z,25.70
2023-05-05T15:08:01.378Z,25.74
2023-05-05T15:10:28.488Z,25.86
2023-05-05T15:12:55.639Z,25.93
2023-05-05T15:15:24.073Z,25.95
2023-05-05T15:17:51.202Z,25.91
2023-05-05T15:20:18.318Z,25.93
2023-05-05T15:22:45.446Z,25.96
2023-05-05T15:25:12.732Z,25.89
2023-05-05T15:27:39.969Z,25.10
2023-05-05T15:30:07.841Z,24.83
2023-05-05T15:32:36.337Z,24.76
2023-05-05T15:35:03.659Z,24.94
2023-05-05T15:37:30.795Z,24.95
2023-05-05T15:39:58.205Z,25.09
2023-05-05T15:42:25.609Z,25.37
2023-05-05T15:44:52.761Z,25.41
2023-05-05T15:47:19.844Z,25.37
2023-05-05T15:49:49.813Z,25.54
2023-05-05T15:52:17.085Z,26.54
2023-05-05T15:54:44.228Z,26.98
2023-05-05T15:57:11.355Z,27.15
2023-05-05T15:59:38.481Z,27.27
2023-05-05T16:02:05.670Z,27.06
2023-05-05T16:04:32.791Z,27.30
2023-05-05T16:07:01.224Z,27.26
2023-05-05T16:09:28.692Z,27.03
2023-05-05T16:11:55.829Z,26.94
2023-05-05T16:14:23.239Z,27.02
2023-05-05T16:16:50.360Z,26.86
2023-05-05T16:19:17.444Z,26.85
2023-05-05T16:21:44.652Z,26.79
2023-05-05T16:24:13.100Z,26.75
2023-05-05T16:26:40.174Z,26.66
2023-05-05T16:29:07.564Z,26.60
2023-05-05T16:31:35.088Z,26.57
2023-05-05T16:34:02.544Z,26.51
2023-05-05T16:36:29.661Z,26.41
2023-05-05T16:38:56.793Z,26.36
2023-05-05T16:41:25.618Z,26.37
2023-05-05T16:43:52.728Z,26.32
2023-05-05T16:46:19.992Z,26.29
2023-05-05T16:48:47.621Z,26.22
2023-05-05T16:51:14.754Z,26.17
2023-05-05T16:53:41.868Z,26.23
2023-05-05T16:56:11.480Z,26.20
2023-05-05T16:58:40.438Z,26.11
2023-05-05T17:01:07.592Z,26.00
2023-05-05T17:03:34.951Z,25.91
2023-05-05T17:06:02.146Z,25.90
2023-05-05T17:08:29.274Z,25.79
2023-05-05T17:10:56.361Z,25.79
2023-05-05T17:13:23.703Z,25.74
2023-05-05T17:15:52.304Z,25.76
2023-05-05T17:18:19.581Z,25.71
2023-05-05T17:20:46.701Z,25.71
2023-05-05T17:23:13.877Z,25.74
2023-05-05T17:25:40.998Z,25.75
2023-05-05T17:28:08.074Z,25.77
2023-05-05T17:30:35.161Z,25.72
2023-05-05T17:33:03.712Z,25.67
2023-05-05T17:35:30.852Z,25.69
2023-05-05T17:37:57.955Z,25.86
2023-05-05T17:40:25.076Z,25.86
2023-05-05T17:42:52.158Z,25.87
2023-05-05T17:45:19.277Z,25.72
2023-05-05T17:47:46.385Z,25.68
2023-05-05T17:50:14.853Z,25.70
2023-05-05T17:52:41.986Z,25.73
2023-05-05T17:55:09.856Z,25.73
2023-05-05T17:57:37.340Z,25.73
2023-05-05T18:00:05.582Z,25.73
2023-05-05T18:02:34.716Z,25.78
2023-05-05T18:05:02.164Z,25.82
2023-05-05T18:07:30.671Z,25.83
2023-05-05T18:09:57.813Z,25.82
2023-05-05T18:12:24.936Z,25.82
2023-05-05T18:14:52.100Z,25.84
2023-05-05T18:17:19.187Z,25.81
2023-05-05T18:19:48.914Z,25.80
2023-05-05T18:22:16.635Z,25.76
2023-05-05T18:24:45.702Z,25.73
2023-05-05T18:27:13.023Z,25.69
2023-05-05T18:29:40.132Z,25.66
2023-05-05T18:32:07.309Z,25.64
2023-05-05T18:34:34.504Z,25.67
2023-05-05T18:37:01.915Z,25.72
2023-05-05T18:39:29.045Z,25.78
2023-05-05T18:41:57.501Z,25.84
2023-05-05T18:44:24.699Z,25.98
2023-05-05T18:46:51.818Z,25.99
2023-05-05T18:49:18.923Z,26.06
2023-05-05T18:51:46.026Z,26.16
2023-05-05T18:54:13.140Z,26.19
2023-05-05T18:56:40.255Z,26.20
2023-05-05T18:59:08.738Z,26.17
2023-05-05T19:01:35.832Z,26.19
2023-05-05T19:04:03.041Z,26.21
2023-05-05T19:06:30.217Z,26.17
2023-05-05T19:08:57.510Z,26.23
2023-05-05T19:11:24.694Z,26.17
2023-05-05T19:13:51.809Z,26.15
2023-05-05T19:16:20.400Z,26.15
2023-05-05T19:18:47.539Z,26.16
2023-05-05T19:21:14.792Z,26.12
2023-05-05T19:23:41.883Z,26.13
2023-05-05T19:26:09.495Z,26.17
2023-05-05T19:28:36.725Z,26.24
2023-05-05T19:31:03.801Z,26.28
2023-05-05T19:33:32.220Z,26.27
2023-05-05T19:35:59.322Z,26.31
2023-05-05T19:38:26.408Z,26.30
2023-05-05T19:40:53.528Z,26.20
2023-05-05T19:43:20.634Z,26.17
2023-05-05T19:45:47.723Z,26.12
2023-05-05T19:48:14.814Z,26.15
2023-05-05T19:50:43.281Z,26.16
2023-05-05T19:53:10.371Z,26.16
2023-05-05T19:55:37.463Z,26.07
2023-05-05T19:58:04.589Z,26.03
2023-05-05T20:00:31.716Z,26.13
2023-05-05T20:02:58.829Z,26.13
2023-05-05T20:05:25.989Z,26.16
2023-05-05T20:07:54.420Z,26.17
2023-05-05T20:10:21.522Z,26.22
2023-05-05T20:12:48.719Z,26.26
2023-05-05T20:15:16.725Z,26.80
2023-05-05T20:17:44.339Z,26.82
2023-05-05T20:20:12.345Z,26.80
2023-05-05T20:22:40.601Z,26.72
2023-05-05T20:25:09.680Z,26.61
2023-05-05T20:27:37.658Z,26.62
2023-05-05T20:30:06.020Z,26.60
2023-05-05T20:32:33.216Z,26.57
2023-05-05T20:35:00.363Z,26.52
2023-05-05T20:37:27.519Z,26.51
2023-05-05T20:39:54.594Z,26.44
2023-05-05T20:42:23.065Z,26.49
2023-05-05T20:44:50.181Z,26.45
2023-05-05T20:47:17.274Z,26.45
2023-05-05T20:49:44.389Z,26.17
2023-05-05T20:52:11.479Z,26.42
2023-05-05T20:54:38.582Z,26.41
2023-05-05T20:57:07.139Z,26.50
2023-05-05T20:59:35.573Z,26.47
2023-05-05T21:02:02.713Z,26.45
2023-05-05T21:04:30.177Z,26.42
2023-05-05T21:06:57.272Z,26.32
2023-05-05T21:09:24.540Z,26.34
2023-05-05T21:11:51.673Z,26.30
2023-05-05T21:14:18.799Z,26.25
2023-05-05T21:16:47.282Z,26.23
2023-05-05T21:19:14.421Z,26.22
2023-05-05T21:21:41.546Z,26.17
2023-05-05T21:24:08.737Z,26.07
2023-05-05T21:26:35.848Z,26.04
2023-05-05T21:29:02.949Z,26.00
2023-05-05T21:31:30.053Z,25.97
2023-05-05T21:33:58.533Z,25.99
2023-05-05T21:36:25.702Z,25.97
2023-05-05T21:38:53.337Z,25.95
2023-05-05T21:41:20.634Z,26.03
2023-05-05T21:43:47.716Z,26.06
2023-05-05T21:46:14.848Z,26.05
2023-05-05T21:48:41.954Z,26.08
2023-05-05T21:51:10.372Z,26.06
2023-05-05T21:53:37.450Z,26.04
2023-05-05T21:56:06.328Z,26.06
2023-05-05T21:58:33.407Z,26.03
2023-05-05T22:01:00.505Z,26.01
2023-05-05T22:03:27.669Z,25.99
2023-05-05T22:05:54.797Z,25.97
2023-05-05T22:08:23.260Z,25.90
2023-05-05T22:10:50.358Z,25.87
2023-05-05T22:13:17.564Z,25.83
2023-05-05T22:15:47.261Z,25.86
2023-05-05T22:18:14.800Z,25.86
2023-05-05T22:20:41.984Z,25.85
2023-05-05T22:23:09.068Z,25.90
2023-05-05T22:25:37.489Z,25.96
2023-05-05T22:28:04.691Z,25.97
2023-05-05T22:30:31.865Z,25.98
2023-05-05T22:32:59.021Z,25.98
2023-05-05T22:35:26.195Z,25.95
2023-05-05T22:37:53.308Z,25.98
2023-05-05T22:40:20.472Z,25.96
2023-05-05T22:42:48.963Z,25.93
2023-05-05T22:45:16.298Z,25.93
2023-05-05T22:47:43.458Z,25.92
2023-05-05T22:50:11.048Z,25.91
2023-05-05T22:52:38.137Z,25.87
2023-05-05T22:55:05.886Z,25.80
2023-05-05T22:57:34.757Z,25.73
2023-05-05T23:00:05.041Z,25.64
2023-05-05T23:02:32.203Z,25.76
2023-05-05T23:04:59.311Z,25.74
2023-05-05T23:07:26.484Z,25.79
2023-05-05T23:09:53.717Z,25.81
2023-05-05T23:12:20.801Z,25.87
2023-05-05T23:14:47.910Z,25.87
2023-05-05T23:17:16.436Z,25.88
2023-05-05T23:19:46.824Z,25.88
2023-05-05T23:22:13.910Z,25.89
2023-05-05T23:24:41.206Z,25.88
2023-05-05T23:27:08.313Z,25.87
2023-05-05T23:29:35.436Z,25.86
2023-05-05T23:32:02.544Z,25.85
2023-05-05T23:34:30.959Z,25.84
2023-05-05T23:36:58.056Z,25.82
2023-05-05T23:39:25.167Z,25.71
2023-05-05T23:41:52.276Z,25.68
2023-05-05T23:44:19.370Z,25.67
2023-05-05T23:46:46.486Z,25.67
2023-05-05T23:49:13.620Z,25.60
2023-05-05T23:51:42.022Z,25.69
2023-05-05T23:54:09.142Z,25.74
2023-05-05T23:56:36.223Z,25.74
2023-05-05T23:59:03.313Z,25.79
